createdAt,value
2022-09-23T00:00:18.868Z,74.05
2022-09-23T00:01:18.986Z,73.94
2022-09-23T00:02:18.939Z,73.74
2022-09-23T00:03:19.690Z,73.64
2022-09-23T00:04:18.803Z,73.44
2022-09-23T00:05:19.788Z,73.98
2022-09-23T00:06:18.785Z,74.08
2022-09-23T00:07:18.808Z,74.19
2022-09-23T00:08:18.772Z,74.49
2022-09-23T00:09:18.746Z,74.39
2022-09-23T00:10:18.731Z,74.60
2022-09-23T00:11:18.725Z,74.69
2022-09-23T00:12:18.713Z,75.01
2022-09-23T00:13:18.707Z,74.39
2022-09-23T00:14:18.717Z,74.80
2022-09-23T00:15:18.687Z,74.80
2022-09-23T00:16:18.735Z,74.39
2022-09-23T00:17:18.657Z,74.39
2022-09-23T00:18:18.653Z,74.39
2022-09-23T00:19:18.644Z,74.69
2022-09-23T00:20:18.663Z,74.39
2022-09-23T00:21:18.625Z,75.10
2022-09-23T00:22:18.613Z,74.60
2022-09-23T00:23:18.610Z,74.60
2022-09-23T00:24:18.616Z,74.90
2022-09-23T00:25:18.585Z,75.01
2022-09-23T00:26:18.589Z,75.01
2022-09-23T00:27:18.550Z,75.01
2022-09-23T00:28:18.540Z,75.52
2022-09-23T00:29:18.527Z,75.10
2022-09-23T00:30:18.552Z,75.04
2022-09-23T00:31:18.581Z,74.80
2022-09-23T00:32:18.500Z,74.63
2022-09-23T00:33:18.481Z,74.94
2022-09-23T00:34:18.481Z,74.84
2022-09-23T00:35:18.462Z,74.94
2022-09-23T00:36:18.471Z,74.73
2022-09-23T00:37:19.124Z,75.24
2022-09-23T00:38:18.425Z,75.55
2022-09-23T00:39:18.423Z,75.55
2022-09-23T00:40:18.462Z,74.94
2022-09-23T00:41:18.453Z,75.14
2022-09-23T00:42:18.392Z,74.94
2022-09-23T00:43:18.373Z,75.14
2022-09-23T00:44:18.367Z,75.14
2022-09-23T00:45:18.364Z,75.45
2022-09-23T00:46:18.397Z,75.79
2022-09-23T00:47:18.357Z,76.10
2022-09-23T00:48:18.324Z,75.79
2022-09-23T00:49:18.316Z,75.59
2022-09-23T00:50:18.301Z,76.20
2022-09-23T00:51:18.307Z,75.89
2022-09-23T00:52:18.274Z,75.99
2022-09-23T00:53:18.318Z,75.69
2022-09-23T00:54:18.273Z,75.79
2022-09-23T00:55:18.250Z,76.20
2022-09-23T00:56:18.249Z,77.43
2022-09-23T00:57:18.231Z,76.61
2022-09-23T00:58:18.229Z,76.20
2022-09-23T00:59:18.235Z,76.40
2022-09-23T01:00:18.192Z,76.72
2022-09-23T01:01:18.240Z,76.51
2022-09-23T01:02:18.239Z,76.44
2022-09-23T01:03:18.277Z,76.54
2022-09-23T01:04:18.161Z,76.85
2022-09-23T01:05:18.139Z,77.06
2022-09-23T01:06:18.130Z,77.06
2022-09-23T01:07:18.116Z,77.36
2022-09-23T01:08:18.108Z,77.06
2022-09-23T01:09:18.106Z,77.26
2022-09-23T05:01:13.609Z,81.04
2022-09-23T05:02:14.595Z,81.34
2022-09-23T05:03:14.542Z,80.42
2022-09-23T05:04:14.553Z,81.24
2022-09-23T05:05:14.516Z,80.93
2022-09-23T05:06:14.518Z,80.58
2022-09-23T05:07:14.506Z,80.28
2022-09-23T05:08:14.494Z,79.87
2022-09-23T05:09:14.557Z,79.97
2022-09-23T05:10:14.477Z,80.18
2022-09-23T05:11:14.446Z,80.38
2022-09-23T05:12:14.458Z,80.58
2022-09-23T05:13:14.431Z,81.00
2022-09-23T05:14:14.418Z,80.07
2022-09-23T05:15:14.419Z,80.18
2022-09-23T05:16:14.451Z,79.87
2022-09-23T05:17:14.394Z,79.97
2022-09-23T05:18:17.853Z,80.28
2022-09-23T05:19:14.369Z,79.87
2022-09-23T05:20:14.418Z,79.36
2022-09-23T05:21:14.369Z,79.25
2022-09-23T05:22:14.346Z,79.63
2022-09-23T05:23:14.339Z,79.52
2022-09-23T05:24:14.356Z,79.63
2022-09-23T05:25:14.316Z,79.22
2022-09-23T05:26:14.297Z,79.93
2022-09-23T05:27:14.286Z,79.52
2022-09-23T05:28:14.289Z,79.22
2022-09-23T05:29:14.269Z,78.81
2022-09-23T05:30:14.261Z,79.63
2022-09-23T05:31:19.320Z,79.32
2022-09-23T05:32:14.235Z,79.01
2022-09-23T05:33:14.243Z,79.32
2022-09-23T05:34:14.219Z,79.32
2022-09-23T05:35:14.202Z,78.70
2022-09-23T05:36:14.200Z,78.29
2022-09-23T05:37:14.198Z,78.29
2022-09-23T05:38:14.171Z,78.29
2022-09-23T05:39:14.163Z,79.01
2022-09-23T05:40:14.259Z,78.81
2022-09-23T05:41:14.140Z,78.60
2022-09-23T05:42:14.143Z,79.42
2022-09-23T05:43:14.122Z,79.52
2022-09-23T05:44:14.113Z,79.22
2022-09-23T05:45:14.123Z,78.70
2022-09-23T05:46:14.165Z,79.11
2022-09-23T05:47:14.086Z,79.08
2022-09-23T05:48:14.062Z,79.38
2022-09-23T05:49:14.062Z,78.56
2022-09-23T05:50:14.047Z,78.97
2022-09-23T05:51:14.037Z,79.38
2022-09-23T05:52:14.029Z,78.56
2022-09-23T05:53:14.011Z,79.49
2022-09-23T05:54:13.993Z,78.97
2022-09-23T05:55:14.002Z,78.87
2022-09-23T05:56:13.992Z,78.46
2022-09-23T05:57:13.966Z,78.36
2022-09-23T05:58:13.958Z,78.25
2022-09-23T05:59:13.950Z,78.36
2022-09-23T06:00:13.938Z,78.56
2022-09-23T06:01:13.957Z,78.05
2022-09-23T06:02:13.989Z,78.36
2022-09-23T06:03:13.923Z,78.87
2022-09-23T06:04:13.908Z,78.32
2022-09-23T06:05:13.888Z,78.42
2022-09-23T06:06:13.883Z,78.42
2022-09-23T06:07:13.882Z,78.12
2022-09-23T06:08:13.859Z,78.32
2022-09-23T06:09:13.841Z,77.71
2022-09-23T06:10:13.842Z,77.91
2022-09-23T06:11:13.821Z,77.71
2022-09-23T06:12:13.858Z,77.20
2022-09-23T06:13:13.791Z,77.87
2022-09-23T06:14:13.794Z,77.77
2022-09-23T06:15:13.779Z,76.85
2022-09-23T06:16:13.920Z,77.06
2022-09-23T06:17:13.868Z,77.26
2022-09-23T06:18:14.814Z,77.87
2022-09-23T06:19:13.729Z,77.98
2022-09-23T06:20:13.734Z,77.98
2022-09-23T06:21:13.965Z,77.06
2022-09-23T06:22:13.767Z,77.47
2022-09-23T06:23:14.092Z,76.75
2022-09-23T06:24:18.803Z,77.67
2022-09-23T06:25:13.731Z,77.98
2022-09-23T06:26:13.683Z,77.57
2022-09-23T06:27:13.651Z,77.94
2022-09-23T06:28:13.633Z,76.61
2022-09-23T06:29:13.639Z,77.02
2022-09-23T06:30:13.619Z,76.31
2022-09-23T06:31:14.122Z,76.40
2022-09-23T06:32:13.623Z,76.10
2022-09-23T06:33:13.638Z,76.10
2022-09-23T06:34:14.354Z,75.89
2022-09-23T06:35:24.812Z,75.89
2022-09-23T06:36:17.280Z,76.81
2022-09-23T06:37:19.770Z,77.12
2022-09-23T06:38:13.557Z,76.81
2022-09-23T06:39:13.530Z,76.40
2022-09-23T06:40:13.597Z,76.81
2022-09-23T06:41:13.498Z,76.61
2022-09-23T06:42:13.525Z,75.48
2022-09-23T06:43:13.568Z,75.14
2022-09-23T06:44:13.495Z,75.55
2022-09-23T06:45:13.555Z,74.63
2022-09-23T06:46:13.504Z,75.45
2022-09-23T06:47:13.447Z,75.04
2022-09-23T06:48:13.427Z,74.73
2022-09-23T06:49:13.573Z,75.35
2022-09-23T06:50:13.406Z,74.43
2022-09-23T06:51:13.437Z,74.73
2022-09-23T06:52:13.412Z,75.35
2022-09-23T06:53:13.389Z,74.80
2022-09-23T06:54:13.362Z,74.39
2022-09-23T06:55:13.371Z,74.69
2022-09-23T06:56:13.367Z,74.90
2022-09-23T06:57:13.359Z,74.39
2022-09-23T06:58:13.355Z,74.60
2022-09-23T06:59:13.325Z,74.69
2022-09-23T07:00:13.300Z,73.98
2022-09-23T07:01:13.364Z,75.31
2022-09-23T07:02:13.475Z,74.29
2022-09-23T07:03:13.258Z,73.88
2022-09-23T07:04:13.269Z,73.47
2022-09-23T07:05:13.239Z,73.74
2022-09-23T07:06:13.249Z,73.13
2022-09-23T07:07:13.242Z,72.82
2022-09-23T07:08:13.219Z,73.54
2022-09-23T07:09:13.205Z,73.64
2022-09-23T07:10:13.204Z,73.94
2022-09-23T07:11:13.386Z,73.94
2022-09-23T07:12:13.190Z,74.35
2022-09-23T07:13:16.291Z,73.64
2022-09-23T07:14:13.146Z,73.13
2022-09-23T07:15:13.130Z,73.54
2022-09-23T07:16:13.196Z,73.33
2022-09-23T07:17:13.123Z,73.13
2022-09-23T07:18:13.101Z,72.62
2022-09-23T07:19:13.117Z,72.62
2022-09-23T07:20:13.084Z,73.03
2022-09-23T07:21:13.098Z,73.64
2022-09-23T07:22:13.070Z,73.40
2022-09-23T07:23:13.057Z,73.20
2022-09-23T07:24:13.058Z,72.89
2022-09-23T07:25:13.029Z,72.69
2022-09-23T07:26:13.022Z,72.89
2022-09-23T07:27:13.013Z,72.79
2022-09-23T07:28:13.004Z,72.69
2022-09-23T07:29:12.994Z,74.22
2022-09-23T07:30:21.764Z,72.79
2022-09-23T07:31:13.336Z,72.48
2022-09-23T07:32:14.432Z,72.28
2022-09-23T07:33:29.485Z,72.69
2022-09-23T07:34:12.942Z,72.28
2022-09-23T07:35:12.937Z,72.89
2022-09-23T07:36:12.955Z,72.79
2022-09-23T07:37:12.908Z,72.17
2022-09-23T07:38:12.909Z,71.87
2022-09-23T07:39:12.874Z,72.48
2022-09-23T07:40:12.920Z,72.79
2022-09-23T07:41:12.863Z,71.94
2022-09-23T07:42:12.869Z,72.34
2022-09-23T07:43:12.842Z,72.55
2022-09-23T07:44:12.849Z,72.04
2022-09-23T07:45:12.820Z,72.24
2022-09-23T07:46:13.008Z,72.24
2022-09-23T07:47:12.806Z,71.22
2022-09-23T07:48:12.814Z,72.65
2022-09-23T07:49:12.774Z,72.45
2022-09-23T07:50:12.774Z,72.24
2022-09-23T07:51:12.757Z,71.22
2022-09-23T07:52:12.741Z,72.24
2022-09-23T07:53:12.733Z,71.73
2022-09-23T07:54:12.737Z,71.53
2022-09-23T07:55:12.736Z,71.53
2022-09-23T07:56:12.712Z,72.04
2022-09-23T07:57:12.690Z,71.94
2022-09-23T07:58:12.675Z,71.53
2022-09-23T07:59:12.703Z,72.45
2022-09-23T08:00:12.651Z,71.33
2022-09-23T08:01:12.690Z,72.34
2022-09-23T08:02:12.642Z,71.73
2022-09-23T08:03:12.701Z,71.63
2022-09-23T08:04:12.611Z,71.42
2022-09-23T08:05:12.613Z,71.59
2022-09-23T08:06:12.623Z,71.59
2022-09-23T08:07:12.607Z,72.00
2022-09-23T08:08:12.572Z,71.70
2022-09-23T08:09:12.560Z,71.59
2022-09-23T08:10:12.569Z,71.70
2022-09-23T08:11:12.539Z,71.50
2022-09-23T08:12:15.921Z,71.39
2022-09-23T08:13:12.541Z,71.39
2022-09-23T08:14:12.507Z,71.29
2022-09-23T08:15:12.494Z,71.91
2022-09-23T08:16:12.614Z,71.80
2022-09-23T08:17:12.473Z,71.70
2022-09-23T08:18:12.462Z,71.39
2022-09-23T08:19:12.455Z,71.26
2022-09-23T08:20:12.444Z,71.15
2022-09-23T08:21:12.470Z,70.64
2022-09-23T08:22:12.426Z,70.44
2022-09-23T08:23:12.417Z,70.75
2022-09-23T08:24:12.406Z,70.44
2022-09-23T08:25:12.398Z,70.34
2022-09-23T08:26:20.351Z,70.14
2022-09-23T08:27:12.391Z,70.64
2022-09-23T08:28:12.357Z,69.79
2022-09-23T08:29:12.351Z,70.20
2022-09-23T08:30:12.356Z,69.90
2022-09-23T08:31:12.446Z,69.90
2022-09-23T08:32:12.319Z,69.69
2022-09-23T08:33:12.318Z,70.81
2022-09-23T08:34:12.288Z,70.72
2022-09-23T08:35:12.286Z,70.31
2022-09-23T08:36:12.311Z,69.79
2022-09-23T08:37:12.261Z,70.10
2022-09-23T08:38:12.255Z,70.00
2022-09-23T08:39:12.245Z,69.59
2022-09-23T08:40:12.286Z,69.90
2022-09-23T08:41:12.270Z,68.23
2022-09-23T08:42:12.205Z,69.05
2022-09-23T08:43:12.199Z,68.23
2022-09-23T08:44:12.204Z,68.23
2022-09-23T08:45:12.196Z,67.72
2022-09-23T08:46:12.223Z,68.64
2022-09-23T08:47:12.169Z,67.52
2022-09-23T08:48:13.083Z,67.93
2022-09-23T08:49:12.136Z,69.15
2022-09-23T08:50:12.119Z,68.44
2022-09-23T08:51:12.217Z,67.32
2022-09-23T08:52:12.152Z,68.13
2022-09-23T08:53:12.095Z,67.08
2022-09-23T08:54:12.090Z,68.30
2022-09-23T08:55:12.074Z,68.61
2022-09-23T08:56:12.060Z,68.30
2022-09-23T08:57:12.058Z,68.30
2022-09-23T08:58:24.844Z,68.10
2022-09-23T08:59:12.033Z,67.59
2022-09-23T09:00:12.022Z,69.12
2022-09-23T09:01:12.046Z,68.51
2022-09-23T09:02:12.063Z,68.37
2022-09-23T09:03:11.996Z,67.25
2022-09-23T09:04:12.773Z,67.25
2022-09-23T09:05:11.965Z,67.46
2022-09-23T09:06:11.960Z,67.46
2022-09-23T09:07:35.353Z,67.35
2022-09-23T09:08:11.936Z,67.35
2022-09-23T09:09:11.924Z,66.71
2022-09-23T09:10:11.949Z,66.50
2022-09-23T09:11:11.901Z,66.10
2022-09-23T09:12:12.014Z,66.20
2022-09-23T09:13:11.887Z,65.69
2022-09-23T09:14:11.859Z,65.59
2022-09-23T09:15:11.857Z,66.50
2022-09-23T09:16:11.936Z,65.39
2022-09-23T09:17:11.840Z,65.59
2022-09-23T09:18:11.819Z,65.49
2022-09-23T09:19:11.822Z,65.80
2022-09-23T09:20:11.805Z,66.07
2022-09-23T09:21:11.796Z,65.77
2022-09-23T09:22:11.838Z,66.78
2022-09-23T09:23:11.782Z,65.66
2022-09-23T09:24:11.758Z,64.64
2022-09-23T09:25:14.366Z,65.46
2022-09-23T09:26:11.734Z,65.66
2022-09-23T09:27:11.746Z,65.46
2022-09-23T09:28:11.748Z,66.04
2022-09-23T09:29:33.688Z,65.33
2022-09-23T09:30:11.702Z,65.33
2022-09-23T09:31:11.719Z,65.12
2022-09-23T09:32:11.679Z,65.43
2022-09-23T09:33:11.685Z,65.43
2022-09-23T09:34:11.671Z,65.53
2022-09-23T09:35:11.655Z,65.22
2022-09-23T09:36:11.645Z,64.61
2022-09-23T09:37:11.622Z,64.51
2022-09-23T09:38:11.647Z,65.73
2022-09-23T09:39:11.617Z,64.99
2022-09-23T09:40:11.727Z,63.46
2022-09-23T09:41:11.598Z,63.87
2022-09-23T09:42:11.573Z,63.97
2022-09-23T09:43:11.579Z,63.97
2022-09-23T09:44:11.541Z,63.87
2022-09-23T09:45:11.574Z,64.99
2022-09-23T09:46:11.572Z,63.97
2022-09-23T09:47:11.537Z,63.36
2022-09-23T09:48:11.510Z,63.67
2022-09-23T09:49:11.551Z,62.75
2022-09-23T09:50:11.518Z,62.62
2022-09-23T09:51:11.500Z,63.43
2022-09-23T09:52:11.469Z,63.43
2022-09-23T09:53:11.392Z,64.76
2022-09-23T09:54:11.427Z,63.33
2022-09-23T09:55:11.424Z,62.41
2022-09-23T09:56:11.367Z,62.82
2022-09-23T09:57:11.352Z,62.72
2022-09-23T09:58:11.344Z,64.15
2022-09-23T09:59:11.335Z,63.13
2022-09-23T10:00:11.332Z,63.54
2022-09-23T10:01:11.357Z,62.49
2022-09-23T10:02:11.297Z,63.10
2022-09-23T10:03:11.281Z,61.78
2022-09-23T10:04:11.347Z,62.39
2022-09-23T10:05:11.294Z,61.68
2022-09-23T10:06:11.294Z,63.07
2022-09-23T10:07:11.236Z,61.65
2022-09-23T10:08:11.242Z,63.37
2022-09-23T10:09:11.233Z,62.36
2022-09-23T10:10:28.873Z,61.24
2022-09-23T10:11:11.229Z,61.14
2022-09-23T10:12:11.248Z,61.34
2022-09-23T10:13:11.203Z,60.94
2022-09-23T10:14:11.267Z,60.74
2022-09-23T10:15:11.159Z,61.93
2022-09-23T10:16:11.166Z,60.81
2022-09-23T10:17:11.152Z,60.50
2022-09-23T10:18:11.126Z,62.23
2022-09-23T10:19:11.115Z,61.11
2022-09-23T10:20:11.125Z,59.89
2022-09-23T10:21:11.102Z,60.81
2022-09-23T10:22:11.099Z,61.52
2022-09-23T10:23:11.065Z,60.91
2022-09-23T10:24:11.057Z,60.60
2022-09-23T10:25:11.062Z,59.86
2022-09-23T10:26:11.034Z,59.77
2022-09-23T10:27:11.031Z,59.56
2022-09-23T10:28:11.017Z,60.47
2022-09-23T10:29:11.029Z,61.29
2022-09-23T10:30:10.993Z,60.88
2022-09-23T10:31:11.028Z,60.88
2022-09-23T10:32:10.974Z,60.14
2022-09-23T10:33:10.975Z,60.24
2022-09-23T10:34:10.983Z,60.24
2022-09-23T10:35:10.946Z,61.66
2022-09-23T10:36:10.933Z,60.04
2022-09-23T10:37:10.923Z,59.81
2022-09-23T10:38:10.905Z,60.82
2022-09-23T10:39:10.937Z,59.61
2022-09-23T10:40:10.969Z,59.41
2022-09-23T10:41:10.877Z,59.41
2022-09-23T10:42:10.880Z,59.61
2022-09-23T10:43:10.856Z,58.80
2022-09-23T10:44:10.844Z,59.17
2022-09-23T10:45:10.850Z,58.87
2022-09-23T10:46:10.892Z,58.67
2022-09-23T10:47:10.823Z,59.38
2022-09-23T10:48:10.810Z,57.86
2022-09-23T10:49:10.801Z,57.35
2022-09-23T10:50:10.808Z,57.32
2022-09-23T10:51:10.792Z,58.84
2022-09-23T10:52:10.774Z,58.64
2022-09-23T10:53:10.759Z,57.22
2022-09-23T10:54:10.809Z,58.03
2022-09-23T10:55:10.743Z,57.02
2022-09-23T10:56:10.756Z,57.29
2022-09-23T10:57:10.745Z,57.60
2022-09-23T10:58:10.705Z,57.29
2022-09-23T10:59:10.722Z,57.80
2022-09-23T11:00:10.709Z,56.89
2022-09-23T11:01:10.742Z,57.20
2022-09-23T11:02:10.666Z,56.96
2022-09-23T11:03:10.691Z,56.76
2022-09-23T11:04:11.304Z,56.76
2022-09-23T11:05:10.652Z,56.66
2022-09-23T11:06:10.618Z,55.02
2022-09-23T11:07:10.620Z,54.51
2022-09-23T11:08:10.603Z,56.02
2022-09-23T11:09:10.599Z,56.61
2022-09-23T11:10:23.207Z,54.38
2022-09-23T11:11:10.582Z,54.08
2022-09-23T11:12:10.572Z,55.27
2022-09-23T11:13:10.554Z,53.85
2022-09-23T11:14:10.595Z,53.34
2022-09-23T11:15:10.561Z,53.45
2022-09-23T11:16:10.600Z,53.25
2022-09-23T11:17:10.613Z,54.13
2022-09-23T11:18:10.498Z,53.52
2022-09-23T11:19:10.502Z,53.83
2022-09-23T11:20:10.487Z,53.02
2022-09-23T11:21:10.510Z,52.19
2022-09-23T11:22:10.486Z,53.09
2022-09-23T11:23:10.449Z,52.69
2022-09-23T11:24:10.481Z,53.80
2022-09-23T11:25:10.432Z,52.47
2022-09-23T11:26:10.418Z,52.06
2022-09-23T11:27:10.449Z,52.97
2022-09-23T11:28:10.418Z,52.56
2022-09-23T11:29:10.419Z,51.76
2022-09-23T11:30:10.400Z,52.04
2022-09-23T11:31:10.505Z,51.64
2022-09-23T11:32:10.531Z,51.53
2022-09-23T11:33:10.355Z,50.73
2022-09-23T11:34:10.417Z,50.90
2022-09-23T11:35:10.332Z,51.00
2022-09-23T11:36:10.309Z,50.60
2022-09-23T11:37:10.339Z,50.80
2022-09-23T11:38:10.300Z,50.57
2022-09-23T11:39:10.292Z,50.17
2022-09-23T11:40:10.306Z,50.57
2022-09-23T11:41:10.265Z,50.17
2022-09-23T11:42:10.243Z,50.25
2022-09-23T11:43:10.279Z,50.35
2022-09-23T11:44:10.317Z,50.76
2022-09-23T11:45:10.222Z,49.65
2022-09-23T11:46:10.355Z,50.05
2022-09-23T11:47:10.220Z,49.35
2022-09-23T11:48:10.212Z,49.44
2022-09-23T11:49:10.210Z,48.92
2022-09-23T11:50:10.164Z,49.42
2022-09-23T11:51:10.163Z,49.02
2022-09-23T11:52:10.146Z,48.61
2022-09-23T11:53:10.155Z,50.23
2022-09-23T11:54:10.230Z,50.73
2022-09-23T11:55:19.958Z,48.92
2022-09-23T11:56:10.107Z,48.41
2022-09-23T11:57:10.094Z,48.79
2022-09-23T11:58:21.082Z,48.59
2022-09-23T11:59:10.364Z,48.49
2022-09-23T12:00:10.059Z,48.07
2022-09-23T12:01:10.053Z,48.57
2022-09-23T12:02:19.279Z,47.46
2022-09-23T12:03:10.243Z,47.46
2022-09-23T12:04:19.330Z,47.06
2022-09-23T12:05:10.143Z,48.07
2022-09-23T12:06:10.035Z,48.67
2022-09-23T12:07:10.001Z,47.66
2022-09-23T12:08:09.983Z,47.97
2022-09-23T12:09:09.992Z,47.97
2022-09-23T12:10:10.018Z,47.86
2022-09-23T12:11:09.959Z,46.36
2022-09-23T12:12:09.938Z,48.77
2022-09-23T12:13:09.939Z,48.67
2022-09-23T12:14:09.989Z,48.27
2022-09-23T12:15:09.941Z,47.77
2022-09-23T12:16:09.892Z,46.76
2022-09-23T12:17:09.899Z,47.16
2022-09-23T12:18:09.947Z,47.04
2022-09-23T12:19:09.866Z,46.54
2022-09-23T12:20:09.907Z,46.23
2022-09-23T12:21:18.315Z,46.34
2022-09-23T12:22:09.837Z,46.41
2022-09-23T12:23:09.814Z,48.22
2022-09-23T12:24:09.835Z,46.01
2022-09-23T12:25:09.863Z,45.61
2022-09-23T12:26:09.814Z,46.31
2022-09-23T12:27:09.831Z,46.61
2022-09-23T12:28:09.796Z,46.11
2022-09-23T12:29:09.825Z,47.02
2022-09-23T12:30:09.789Z,46.39
2022-09-23T12:31:09.813Z,46.59
2022-09-23T12:32:09.773Z,45.79
2022-09-23T12:33:09.716Z,45.29
2022-09-23T12:34:09.809Z,46.19
2022-09-23T12:35:09.693Z,44.99
2022-09-23T12:36:09.679Z,44.67
2022-09-23T12:37:09.679Z,45.57
2022-09-23T12:38:09.748Z,45.77
2022-09-23T12:39:09.802Z,44.56
2022-09-23T12:40:09.840Z,45.77
2022-09-23T12:41:09.662Z,44.87
2022-09-23T12:42:09.699Z,43.74
2022-09-23T12:43:09.629Z,43.34
2022-09-23T12:44:09.669Z,43.84
2022-09-23T12:45:09.580Z,45.34
2022-09-23T12:46:09.623Z,44.14
2022-09-23T12:47:09.558Z,45.54
2022-09-23T12:48:09.563Z,45.65
2022-09-23T12:49:09.539Z,44.95
2022-09-23T12:50:13.204Z,43.44
2022-09-23T12:51:09.527Z,44.04
2022-09-23T12:52:09.509Z,44.24
2022-09-23T12:53:09.494Z,44.02
2022-09-23T12:54:09.552Z,42.41
2022-09-23T12:55:09.476Z,44.22
2022-09-23T12:56:09.485Z,44.42
2022-09-23T12:57:09.459Z,45.12
2022-09-23T12:58:09.448Z,43.82
2022-09-23T12:59:09.432Z,43.70
2022-09-23T13:00:09.439Z,43.19
2022-09-23T13:01:09.547Z,43.30
2022-09-23T13:02:09.566Z,43.19
2022-09-23T13:03:09.399Z,43.18
2022-09-23T13:04:09.384Z,43.58
2022-09-23T13:05:09.373Z,44.78
2022-09-23T13:06:09.367Z,42.88
2022-09-23T13:07:09.367Z,42.57
2022-09-23T13:08:09.348Z,43.26
2022-09-23T13:09:09.460Z,42.25
2022-09-23T13:10:09.323Z,43.35
2022-09-23T13:11:09.313Z,43.26
2022-09-23T13:12:09.775Z,42.25
2022-09-23T13:13:09.287Z,42.24
2022-09-23T13:14:09.361Z,41.83
2022-09-23T13:15:09.264Z,41.63
2022-09-23T13:16:09.314Z,41.61
2022-09-23T13:17:09.248Z,41.41
2022-09-23T13:18:09.250Z,42.32
2022-09-23T13:19:09.220Z,41.91
2022-09-23T13:20:09.284Z,41.74
2022-09-23T13:21:09.201Z,42.24
2022-09-23T13:22:09.436Z,41.83
2022-09-23T13:23:09.199Z,41.71
2022-09-23T13:24:09.203Z,41.52
2022-09-23T13:25:09.157Z,42.41
2022-09-23T13:26:09.156Z,41.41
2022-09-23T13:27:09.134Z,42.41
2022-09-23T13:28:09.135Z,41.03
2022-09-23T13:29:09.624Z,41.02
2022-09-23T13:30:09.188Z,41.11
2022-09-23T13:31:09.211Z,42.02
2022-09-23T13:32:09.202Z,42.82
2022-09-23T13:33:09.075Z,42.11
2022-09-23T13:34:09.067Z,41.61
2022-09-23T13:35:09.067Z,43.21
2022-09-23T13:36:09.046Z,42.71
2022-09-23T13:37:09.031Z,42.21
2022-09-23T13:38:09.031Z,41.61
2022-09-23T13:39:09.020Z,41.71
2022-09-23T13:40:09.241Z,41.31
2022-09-23T13:41:08.985Z,41.11
2022-09-23T13:42:08.992Z,40.91
2022-09-23T13:43:08.978Z,41.60
2022-09-23T13:44:09.086Z,42.52
2022-09-23T13:45:09.109Z,41.31
2022-09-23T13:46:09.061Z,41.31
2022-09-23T13:47:08.927Z,42.49
2022-09-23T13:48:08.928Z,42.29
2022-09-23T13:49:08.913Z,41.99
2022-09-23T13:50:08.923Z,41.19
2022-09-23T13:51:08.913Z,41.09
2022-09-23T13:52:08.875Z,42.19
2022-09-23T13:53:08.865Z,41.80
2022-09-23T13:54:08.895Z,43.49
2022-09-23T13:55:08.861Z,40.39
2022-09-23T13:56:08.840Z,40.88
2022-09-23T13:57:08.823Z,40.47
2022-09-23T13:58:08.823Z,42.68
2022-09-23T13:59:08.804Z,40.78
2022-09-23T14:00:08.800Z,40.78
2022-09-23T14:01:08.848Z,40.47
2022-09-23T14:02:08.825Z,40.78
2022-09-23T14:03:08.759Z,41.38
2022-09-23T14:04:08.753Z,39.87
2022-09-23T14:05:08.735Z,40.58
2022-09-23T14:06:08.744Z,40.58
2022-09-23T14:07:08.740Z,40.80
2022-09-23T14:08:08.717Z,41.09
2022-09-23T14:09:08.693Z,40.89
2022-09-23T14:10:08.688Z,40.80
2022-09-23T14:11:08.697Z,40.30
2022-09-23T14:12:08.674Z,40.00
2022-09-23T14:13:08.716Z,40.58
2022-09-23T14:14:08.715Z,39.78
2022-09-23T14:15:08.629Z,39.98
2022-09-23T14:16:08.687Z,40.28
2022-09-23T14:17:08.630Z,40.78
2022-09-23T14:18:08.612Z,41.17
2022-09-23T14:19:08.619Z,40.37
2022-09-23T14:20:08.607Z,41.38
2022-09-23T14:21:08.597Z,41.49
2022-09-23T14:22:12.291Z,40.99
2022-09-23T14:23:08.560Z,41.61
2022-09-23T14:24:08.551Z,41.02
2022-09-23T14:25:08.564Z,41.93
2022-09-23T14:26:08.534Z,41.93
2022-09-23T14:27:08.512Z,42.63
2022-09-23T14:28:08.511Z,42.74
2022-09-23T14:29:08.492Z,42.13
2022-09-23T14:30:08.483Z,42.74
2022-09-23T14:31:08.533Z,42.54
2022-09-23T14:32:08.458Z,43.33
2022-09-23T14:33:08.812Z,41.93
2022-09-23T14:34:08.460Z,42.63
2022-09-23T14:35:08.422Z,43.43
2022-09-23T14:36:08.420Z,42.74
2022-09-23T14:37:08.406Z,43.04
2022-09-23T14:38:08.418Z,43.84
2022-09-23T14:39:08.394Z,42.54
2022-09-23T14:40:08.540Z,42.13
2022-09-23T14:41:08.363Z,42.82
2022-09-23T14:42:08.355Z,42.61
2022-09-23T14:43:08.352Z,42.52
2022-09-23T14:44:08.389Z,42.91
2022-09-23T14:45:08.312Z,43.01
2022-09-23T14:46:08.450Z,43.91
2022-09-23T14:47:12.201Z,43.62
2022-09-23T14:48:08.325Z,42.61
2022-09-23T14:49:08.340Z,42.21
2022-09-23T14:50:08.266Z,42.32
2022-09-23T14:51:10.914Z,42.52
2022-09-23T14:52:08.291Z,41.71
2022-09-23T14:53:08.271Z,43.41
2022-09-23T14:54:08.237Z,41.91
2022-09-23T14:55:08.236Z,42.21
2022-09-23T14:56:08.239Z,42.41
2022-09-23T14:57:08.191Z,42.91
2022-09-23T14:58:08.195Z,42.21
2022-09-23T14:59:08.249Z,42.32
2022-09-23T15:00:08.168Z,42.41
2022-09-23T15:01:08.244Z,44.12
2022-09-23T15:02:08.149Z,43.32
2022-09-23T15:03:08.157Z,43.13
2022-09-23T15:04:08.119Z,44.13
2022-09-23T15:05:08.150Z,42.24
2022-09-23T15:06:08.938Z,42.54
2022-09-23T15:07:08.095Z,42.63
2022-09-23T15:08:08.073Z,43.24
2022-09-23T15:09:08.124Z,43.13
2022-09-23T15:10:08.080Z,42.13
2022-09-23T15:11:08.546Z,42.13
2022-09-23T15:12:08.042Z,44.04
2022-09-23T15:13:08.096Z,42.24
2022-09-23T15:14:36.055Z,42.03
2022-09-23T15:15:08.017Z,43.43
2022-09-23T15:16:08.081Z,44.04
2022-09-23T15:17:08.000Z,44.34
2022-09-23T15:18:07.993Z,43.63
2022-09-23T15:19:07.967Z,44.24
2022-09-23T15:20:07.953Z,44.04
2022-09-23T15:21:07.950Z,43.24
2022-09-23T15:22:07.932Z,43.35
2022-09-23T15:23:07.939Z,44.13
2022-09-23T15:24:07.956Z,43.85
2022-09-23T15:25:07.911Z,44.06
2022-09-23T15:26:07.890Z,43.85
2022-09-23T15:27:07.877Z,44.76
2022-09-23T15:28:07.884Z,44.35
2022-09-23T15:29:07.875Z,45.16
2022-09-23T15:30:11.268Z,45.38
2022-09-23T15:31:07.890Z,44.88
2022-09-23T15:32:07.909Z,46.28
2022-09-23T15:33:07.815Z,45.28
2022-09-23T15:34:07.920Z,45.18
2022-09-23T15:35:07.800Z,44.28
2022-09-23T15:36:07.799Z,44.68
2022-09-23T15:37:07.780Z,43.68
2022-09-23T15:38:07.777Z,44.80
2022-09-23T15:39:07.764Z,44.40
2022-09-23T15:40:07.821Z,43.98
2022-09-23T15:41:07.726Z,45.18
2022-09-23T15:42:07.813Z,44.38
2022-09-23T15:43:07.718Z,46.08
2022-09-23T15:44:07.815Z,45.30
2022-09-23T15:45:07.689Z,44.20
2022-09-23T15:46:07.755Z,43.90
2022-09-23T15:47:07.668Z,43.60
2022-09-23T15:48:07.687Z,43.62
2022-09-23T15:49:07.732Z,43.92
2022-09-23T15:50:07.645Z,44.72
2022-09-23T15:51:07.620Z,46.03
2022-09-23T15:52:07.617Z,45.34
2022-09-23T15:53:07.878Z,45.04
2022-09-23T15:54:07.605Z,46.15
2022-09-23T15:55:07.594Z,46.25
2022-09-23T15:56:07.579Z,45.04
2022-09-23T15:57:07.556Z,46.15
2022-09-23T15:58:07.561Z,46.04
2022-09-23T15:59:07.623Z,45.45
2022-09-23T16:00:07.537Z,45.14
2022-09-23T16:01:07.612Z,44.64
2022-09-23T16:02:07.576Z,45.95
2022-09-23T16:03:07.500Z,45.04
2022-09-23T16:04:07.495Z,46.15
2022-09-23T16:05:07.508Z,45.95
2022-09-23T16:06:07.465Z,45.14
2022-09-23T16:07:07.466Z,44.95
2022-09-23T16:08:09.222Z,45.37
2022-09-23T16:09:07.476Z,45.26
2022-09-23T16:10:07.466Z,46.07
2022-09-23T16:11:07.407Z,46.17
2022-09-23T16:12:07.405Z,46.67
2022-09-23T16:13:07.418Z,46.47
2022-09-23T16:14:07.386Z,46.07
2022-09-23T16:15:07.388Z,46.67
2022-09-23T16:16:07.436Z,46.89
2022-09-23T16:17:07.378Z,46.49
2022-09-23T16:18:07.342Z,46.69
2022-09-23T16:19:07.510Z,46.19
2022-09-23T16:20:07.318Z,45.89
2022-09-23T16:21:07.322Z,47.60
2022-09-23T16:22:07.299Z,47.09
2022-09-23T16:23:07.289Z,46.69
2022-09-23T16:24:07.288Z,47.12
2022-09-23T16:25:07.266Z,47.12
2022-09-23T16:26:07.291Z,47.02
2022-09-23T16:27:07.256Z,48.02
2022-09-23T16:28:07.227Z,48.32
2022-09-23T16:29:07.394Z,47.22
2022-09-23T16:30:07.214Z,46.44
2022-09-23T16:31:07.257Z,47.64
2022-09-23T16:32:07.297Z,48.25
2022-09-23T16:33:07.183Z,47.54
2022-09-23T16:34:07.163Z,48.55
2022-09-23T16:35:07.196Z,48.25
2022-09-23T16:36:07.143Z,47.14
2022-09-23T16:37:07.155Z,47.54
2022-09-23T16:38:07.146Z,48.27
2022-09-23T16:39:07.208Z,48.27
2022-09-23T16:40:07.202Z,47.56
2022-09-23T16:41:07.511Z,48.17
2022-09-23T16:42:07.084Z,47.66
2022-09-23T16:43:07.870Z,48.27